createdAt,value
2018-10-21T00:00:04.532Z,77.98
2018-10-21T00:06:09.501Z,78.65
2018-10-21T00:12:14.432Z,78.17
2018-10-21T00:18:19.262Z,78.23
2018-10-21T00:24:24.118Z,77.81
2018-10-21T00:30:29.098Z,77.44
2018-10-21T00:36:34.202Z,77.58
2018-10-21T00:42:39.333Z,77.47
2018-10-21T00:48:44.333Z,78.08
2018-10-21T00:54:49.329Z,78.24
2018-10-21T01:00:54.387Z,78.48
2018-10-21T01:06:59.443Z,79.06
2018-10-21T01:13:04.418Z,79.35
2018-10-21T01:19:09.473Z,79.56
2018-10-21T01:25:14.514Z,79.48
2018-10-21T01:31:19.528Z,79.79
2018-10-21T01:37:24.652Z,80.07
2018-10-21T01:43:32.465Z,79.86
2018-10-21T01:49:37.477Z,79.60
2018-10-21T01:55:43.191Z,79.98
2018-10-21T02:01:48.684Z,80.04
2018-10-21T02:07:53.627Z,79.76
2018-10-21T02:13:59.368Z,79.76
2018-10-21T02:20:04.344Z,79.69
2018-10-21T02:26:10.135Z,79.59
2018-10-21T02:32:15.073Z,80.12
2018-10-21T02:38:20.075Z,80.56
2018-10-21T02:44:25.568Z,80.56
2018-10-21T02:50:32.792Z,79.59
2018-10-21T02:56:37.817Z,80.18
2018-10-21T03:02:42.807Z,80.23
2018-10-21T03:08:47.719Z,80.43
2018-10-21T03:14:52.426Z,79.91
2018-10-21T03:20:57.741Z,78.78
2018-10-21T03:27:03.913Z,79.29
2018-10-21T03:33:10.322Z,79.45
2018-10-21T03:39:15.333Z,79.21
2018-10-21T03:45:20.391Z,79.21
2018-10-21T03:51:25.745Z,78.58
2018-10-21T03:57:32.410Z,78.14
2018-10-21T04:03:37.491Z,78.31
2018-10-21T04:09:42.544Z,78.47
2018-10-21T04:15:47.842Z,78.50
2018-10-21T04:21:52.782Z,77.92
2018-10-21T04:27:58.684Z,78.19
2018-10-21T04:34:03.674Z,77.70
2018-10-21T04:40:22.229Z,78.66
2018-10-21T04:46:26.877Z,77.98
2018-10-21T04:52:32.373Z,78.21
2018-10-21T04:58:37.071Z,78.04
2018-10-21T05:04:42.082Z,78.40
2018-10-21T05:10:46.841Z,77.76
2018-10-21T05:16:52.452Z,78.55
2018-10-21T05:23:01.380Z,77.66
2018-10-21T05:29:06.285Z,77.32
2018-10-21T05:35:12.953Z,77.17
2018-10-21T05:41:18.138Z,77.35
2018-10-21T05:47:23.145Z,77.75
2018-10-21T05:53:28.778Z,78.44
2018-10-21T05:59:34.239Z,78.53
2018-10-21T06:05:47.954Z,78.77
2018-10-21T06:11:52.913Z,79.29
2018-10-21T06:17:57.801Z,79.57
2018-10-21T06:24:04.430Z,80.21
2018-10-21T06:30:11.656Z,80.38
2018-10-21T06:36:16.771Z,80.68
2018-10-21T06:42:22.445Z,80.28
2018-10-21T06:48:27.544Z,79.33
2018-10-21T06:54:32.588Z,78.77
2018-10-21T07:00:37.600Z,77.40
2018-10-21T07:06:43.068Z,75.81
2018-10-21T07:12:47.809Z,74.63
2018-10-21T07:18:52.827Z,72.99
2018-10-21T07:24:57.581Z,73.42
2018-10-21T07:31:03.520Z,73.32
2018-10-21T07:37:09.675Z,72.25
2018-10-21T07:43:14.691Z,71.96
2018-10-21T07:49:19.735Z,71.09
2018-10-21T07:55:24.847Z,68.39
2018-10-21T08:01:29.866Z,67.61
2018-10-21T08:08:42.051Z,65.52
2018-10-21T08:14:47.711Z,64.84
2018-10-21T08:20:54.495Z,65.35
2018-10-21T08:27:00.344Z,65.78
2018-10-21T08:33:06.093Z,66.65
2018-10-21T08:39:12.053Z,65.41
2018-10-21T08:45:17.407Z,66.68
2018-10-21T08:51:22.443Z,67.03
2018-10-21T08:57:27.469Z,67.14
2018-10-21T09:03:32.413Z,66.47
2018-10-21T09:09:37.485Z,65.89
2018-10-21T09:15:43.313Z,65.52
2018-10-21T09:21:48.694Z,66.39
2018-10-21T09:27:53.741Z,65.53
2018-10-21T09:33:58.710Z,64.86
2018-10-21T09:40:03.724Z,64.26
2018-10-21T09:46:08.597Z,63.45
2018-10-21T09:52:13.348Z,64.71
2018-10-21T09:58:18.522Z,64.56
2018-10-21T10:04:23.314Z,64.38
2018-10-21T10:10:28.079Z,62.25
2018-10-21T10:16:32.891Z,61.51
2018-10-21T10:22:37.578Z,61.62
2018-10-21T10:28:42.347Z,61.90
2018-10-21T10:34:47.152Z,60.96
2018-10-21T10:40:52.219Z,60.96
2018-10-21T10:46:57.063Z,59.76
2018-10-21T10:53:02.230Z,61.23
2018-10-21T10:59:07.022Z,59.70
2018-10-21T11:05:12.277Z,59.51
2018-10-21T11:11:17.291Z,60.53
2018-10-21T11:18:31.333Z,60.17
2018-10-21T11:24:42.140Z,60.80
2018-10-21T11:30:46.956Z,61.25
2018-10-21T11:36:52.331Z,60.15
2018-10-21T11:43:02.196Z,62.55
2018-10-21T11:49:07.250Z,62.54
2018-10-21T11:55:12.884Z,64.83
2018-10-21T12:01:18.518Z,64.93
2018-10-21T12:07:23.597Z,64.48
2018-10-21T12:13:28.700Z,63.18
2018-10-21T12:19:33.752Z,62.73
2018-10-21T12:25:38.801Z,58.81
2018-10-21T12:31:43.774Z,58.24
2018-10-21T12:37:48.896Z,59.58
2018-10-21T12:43:54.287Z,59.25
2018-10-21T12:50:00.138Z,59.01
2018-10-21T12:56:05.409Z,57.57
2018-10-21T13:02:10.496Z,57.40
2018-10-21T13:08:15.212Z,58.31
2018-10-21T13:14:19.951Z,57.51
2018-10-21T13:20:25.257Z,56.13
2018-10-21T13:26:30.075Z,54.41
2018-10-21T13:32:35.813Z,52.54
2018-10-21T13:38:40.796Z,52.25
2018-10-21T13:44:45.559Z,49.51
2018-10-21T13:50:50.598Z,50.46
2018-10-21T13:56:55.927Z,50.79
2018-10-21T14:03:00.614Z,51.55
2018-10-21T14:09:09.572Z,51.87
2018-10-21T14:15:14.282Z,51.88
2018-10-21T14:21:18.867Z,52.43
2018-10-21T14:27:23.651Z,53.93
2018-10-21T14:33:28.703Z,55.05
2018-10-21T14:39:33.343Z,55.62
2018-10-21T14:45:38.064Z,55.79
2018-10-21T14:51:43.049Z,56.88
2018-10-21T14:57:48.063Z,56.87
2018-10-21T15:03:53.072Z,58.03
2018-10-21T15:09:58.147Z,58.15
2018-10-21T15:16:03.320Z,56.15
2018-10-21T15:22:08.371Z,56.12
2018-10-21T15:28:13.394Z,57.72
2018-10-21T15:34:18.395Z,58.98
2018-10-21T15:40:23.461Z,59.99
2018-10-21T15:46:28.425Z,60.78
2018-10-21T15:52:33.937Z,62.44
2018-10-21T15:58:38.928Z,63.38
2018-10-21T16:04:43.899Z,64.86
2018-10-21T16:10:49.830Z,65.25
2018-10-21T16:16:54.866Z,65.87
2018-10-21T16:22:59.877Z,67.68
2018-10-21T16:29:04.920Z,67.81
2018-10-21T16:35:10.425Z,69.01
2018-10-21T16:41:15.441Z,69.33
2018-10-21T16:47:20.415Z,70.32
2018-10-21T16:53:25.440Z,70.59
2018-10-21T16:59:30.421Z,70.88
2018-10-21T17:05:35.463Z,71.69
2018-10-21T17:11:40.513Z,71.73
2018-10-21T17:17:45.464Z,72.01
2018-10-21T17:23:50.411Z,72.08
2018-10-21T17:29:55.395Z,72.58
2018-10-21T17:36:00.445Z,72.73
2018-10-21T17:42:06.205Z,72.78
2018-10-21T17:48:11.269Z,73.49
2018-10-21T17:54:16.281Z,74.18
2018-10-21T18:00:21.293Z,73.89
2018-10-21T18:06:26.270Z,73.77
2018-10-21T18:12:31.682Z,74.39
2018-10-21T18:18:36.705Z,74.40
2018-10-21T18:24:41.733Z,74.41
2018-10-21T18:30:46.719Z,74.98
2018-10-21T18:36:51.764Z,75.57
2018-10-21T18:42:56.853Z,76.26
2018-10-21T18:49:01.828Z,76.50
2018-10-21T18:55:07.812Z,77.56
2018-10-21T19:01:12.553Z,77.99
2018-10-21T19:07:18.095Z,78.45
2018-10-21T19:13:22.945Z,77.00
2018-10-21T19:19:27.837Z,77.92
2018-10-21T19:25:32.807Z,77.64
2018-10-21T19:31:37.489Z,77.13
2018-10-21T19:37:43.056Z,76.51
2018-10-21T19:43:48.038Z,76.17
2018-10-21T19:49:53.040Z,76.60
2018-10-21T19:55:57.959Z,76.77
2018-10-21T20:02:02.888Z,77.14
2018-10-21T20:08:07.876Z,78.11
2018-10-21T20:14:12.907Z,77.96
2018-10-21T20:20:17.857Z,78.68
2018-10-21T20:26:22.787Z,77.58
2018-10-21T20:32:28.535Z,77.83
2018-10-21T20:38:34.071Z,78.95
2018-10-21T20:44:39.106Z,79.46
2018-10-21T20:50:44.132Z,80.38
2018-10-21T20:56:49.179Z,79.92
2018-10-21T21:02:54.173Z,79.50
2018-10-21T21:09:00.242Z,82.10
2018-10-21T21:15:05.358Z,80.41
2018-10-21T21:21:10.302Z,80.46
2018-10-21T21:27:15.301Z,81.11
2018-10-21T21:33:20.341Z,80.79
2018-10-21T21:39:25.298Z,80.99
2018-10-21T21:45:30.014Z,80.95
2018-10-21T21:51:34.866Z,81.84
2018-10-21T21:57:39.548Z,81.59
2018-10-21T22:03:44.580Z,81.84
2018-10-21T22:09:49.480Z,82.36
2018-10-21T22:15:54.680Z,83.37
2018-10-21T22:21:59.651Z,83.09
2018-10-21T22:28:04.706Z,83.19
2018-10-21T22:34:09.946Z,83.38
2018-10-21T22:40:14.987Z,83.10
2018-10-21T22:46:20.110Z,83.62
2018-10-21T22:52:24.639Z,83.77
2018-10-21T22:58:29.636Z,83.34
2018-10-21T23:04:34.445Z,83.90
2018-10-21T23:10:39.103Z,84.47
2018-10-21T23:16:44.115Z,84.14
2018-10-21T23:22:49.280Z,84.29
2018-10-21T23:31:28.611Z,86.37
2018-10-21T23:37:33.436Z,86.18
2018-10-21T23:43:38.957Z,86.82
2018-10-21T23:49:43.640Z,86.25
2018-10-21T23:55:48.320Z,85.84
